Observations for Trim Market St
| Time | AQI | Temp °C | Hum % | Pres Pa | CO μg/m³ | H₂S μg/m³ | NO μg/m³ | NO₂ μg/m³ | O₃ μg/m³ | SO₂ μg/m³ | PM1 μg/m³ | PM2.5 μg/m³ | PM10 μg/m³ |
|---|---|---|---|---|---|---|---|---|---|---|---|---|---|
| Thursday 16 July 2026 | |||||||||||||
| 11:59 | 1 | 36.1 | 32 | 66,497 | 0 | 0 | 0 | 0 | 19.69 | 0 | 7.84 | 15.09 | 24.55 |
| 11:58 | 1 | 35.9 | 32 | 66,476 | 0 | 0 | 0 | 0 | 34.55 | 0 | 9.26 | 15.62 | 21.14 |
| 11:57 | 1 | 35.7 | 33 | 66,447 | 0 | 0 | 0 | 0.13 | 29.68 | 0 | 7.13 | 13.98 | 18.55 |
| 11:56 | 1 | 35.5 | 33 | 66,437 | 0 | 0 | 0 | 13.27 | 27.46 | 0 | 9.98 | 15.59 | 22.79 |
| 11:55 | 1 | 35.3 | 33 | 66,435 | 0 | 0 | 0 | 0.22 | 35.97 | 0 | 9.26 | 16.66 | 23.63 |
| 11:54 | 1 | 35.1 | 33 | 66,427 | 0 | 0 | 0 | 0 | 23.51 | 0 | 7.84 | 14.48 | 21.05 |
| 11:53 | 1 | 35 | 33 | 66,422 | 0 | 0 | 0 | 2.06 | 33.65 | 0 | 7.84 | 13.4 | 20.21 |
| 11:52 | 1 | 34.9 | 33 | 66,422 | 0 | 0 | 0 | 2.97 | 40.33 | 0 | 6.41 | 11.24 | 14.28 |
| 11:51 | 1 | 34.8 | 33 | 66,422 | 0 | 0 | 0 | 2.32 | 48.33 | 0 | 9.26 | 13.41 | 18.52 |
| 11:50 | 1 | 34.7 | 33 | 66,420 | 0 | 0 | 0 | 0.27 | 31.85 | 0 | 6.41 | 15.04 | 20.23 |
| 11:47 | 1 | 34.9 | 32 | 66,394 | 0 | 0 | 0 | 3.26 | 29.25 | 0 | 7.84 | 12.37 | 17.72 |
| 11:44 | 1 | 35.1 | 32 | 66,398 | 0 | 0 | 0 | 0 | 31.32 | 0 | 9.98 | 16.7 | 24.53 |
| 11:41 | 1 | 35.2 | 33 | 66,412 | 0 | 0 | 0 | 2.63 | 35.93 | 0 | 8.55 | 14.49 | 21.07 |
| 11:39 | 1 | 35.3 | 33 | 66,400 | 0 | 0 | 0 | 7.7 | 29.27 | 0 | 7.84 | 14.49 | 20.22 |
| 11:32 | 1 | 35.2 | 33 | 66,325 | 0 | 0 | 0 | 5.6 | 45.08 | 0 | 8.55 | 13.94 | 21.05 |
| 11:30 | 1 | 35.1 | 33 | 66,345 | 0 | 0 | 0 | 5.32 | 32.8 | 0 | 7.13 | 12.86 | 16.82 |
| 11:29 | 1 | 35.1 | 33 | 66,347 | 0 | 0 | 0 | 3.51 | 41.18 | 0 | 7.84 | 16.08 | 23.57 |
| 11:28 | 1 | 35.1 | 33 | 66,319 | 0 | 0 | 0 | 8.62 | 23.16 | 0 | 8.55 | 14.47 | 20.2 |
| 11:27 | 1 | 35 | 34 | 66,311 | 0 | 0 | 0 | 0.12 | 34.43 | 0 | 9.26 | 14.46 | 21.02 |
| 11:26 | 1 | 34.9 | 34 | 66,307 | 0 | 0 | 0 | 4.12 | 27.96 | 0 | 8.55 | 13.9 | 20.99 |